createdAt,value
2018-05-13T00:00:36.381Z,12.73
2018-05-13T00:03:07.540Z,12.10
2018-05-13T00:05:37.448Z,13.30
2018-05-13T00:08:05.477Z,12.83
2018-05-13T00:10:38.385Z,12.13
2018-05-13T00:13:10.057Z,12.53
2018-05-13T00:15:40.073Z,11.57
2018-05-13T00:18:08.100Z,12.07
2018-05-13T00:20:36.112Z,12.43
2018-05-13T00:23:04.133Z,11.93
2018-05-13T00:25:32.149Z,12.30
2018-05-13T00:28:04.100Z,13.40
2018-05-13T00:30:33.113Z,11.53
2018-05-13T00:33:03.130Z,12.80
2018-05-13T00:35:42.185Z,12.93
2018-05-13T00:38:11.961Z,13.60
2018-05-13T00:40:40.901Z,12.83
2018-05-13T00:43:08.929Z,12.53
2018-05-13T00:45:38.920Z,13.50
2018-05-13T00:48:06.966Z,13.60
2018-05-13T00:50:47.621Z,13.13
2018-05-13T00:53:18.914Z,14.83
2018-05-13T00:55:47.837Z,13.73
2018-05-13T00:58:19.877Z,12.90
2018-05-13T01:00:53.677Z,13.23
2018-05-13T01:03:21.684Z,13.67
2018-05-13T01:05:51.368Z,12.50
2018-05-13T01:08:20.356Z,13.57
2018-05-13T01:10:54.039Z,15.00
2018-05-13T01:13:23.055Z,13.70
2018-05-13T01:15:54.697Z,14.00
2018-05-13T01:18:33.158Z,15.30
2018-05-13T01:21:08.677Z,14.30
2018-05-13T01:23:37.648Z,14.00
2018-05-13T01:26:18.181Z,13.37
2018-05-13T01:28:48.965Z,14.73
2018-05-13T01:31:22.752Z,14.03
2018-05-13T01:33:54.328Z,14.37
2018-05-13T01:36:24.113Z,14.80
2018-05-13T01:38:56.592Z,13.33
2018-05-13T01:41:27.777Z,13.93
2018-05-13T01:43:58.469Z,12.50
2018-05-13T01:46:39.677Z,13.87
2018-05-13T01:49:15.109Z,14.27
2018-05-13T01:51:50.593Z,13.67
2018-05-13T01:54:18.629Z,13.30
2018-05-13T01:56:51.589Z,13.07
2018-05-13T01:59:21.523Z,14.07
2018-05-13T02:01:51.514Z,12.90
2018-05-13T02:04:31.693Z,13.33
2018-05-13T02:07:00.674Z,13.90
2018-05-13T02:09:40.285Z,14.03
2018-05-13T02:12:09.065Z,14.43
2018-05-13T02:14:39.004Z,13.77
2018-05-13T02:17:08.905Z,13.67
2018-05-13T02:19:36.928Z,12.70
2018-05-13T02:22:05.716Z,13.20
2018-05-13T02:24:34.669Z,13.60
2018-05-13T02:27:04.699Z,13.70
2018-05-13T02:29:32.704Z,14.97
2018-05-13T02:32:04.725Z,14.00
2018-05-13T02:34:32.745Z,12.80
2018-05-13T02:37:02.690Z,15.03
2018-05-13T02:39:30.969Z,13.93
2018-05-13T02:42:02.641Z,13.80
2018-05-13T02:44:30.673Z,13.90
2018-05-13T02:47:00.417Z,14.60
2018-05-13T02:49:34.178Z,14.70
2018-05-13T02:52:04.013Z,15.17
2018-05-13T02:54:33.926Z,14.80
2018-05-13T02:57:01.945Z,14.83
2018-05-13T02:59:32.633Z,14.50
2018-05-13T03:02:01.637Z,15.47
2018-05-13T03:04:34.827Z,15.30
2018-05-13T03:07:04.854Z,16.77
2018-05-13T03:09:32.878Z,15.03
2018-05-13T03:12:00.909Z,16.73
2018-05-13T03:14:34.796Z,15.90
2018-05-13T03:17:09.156Z,15.23
2018-05-13T03:19:49.228Z,16.50
2018-05-13T03:22:18.284Z,17.70
2018-05-13T03:24:51.033Z,16.17
2018-05-13T03:27:21.068Z,17.27
2018-05-13T03:29:49.081Z,16.27
2018-05-13T03:32:18.000Z,16.63
2018-05-13T03:34:46.013Z,16.40
2018-05-13T03:37:17.021Z,16.00
2018-05-13T03:39:50.556Z,16.67
2018-05-13T03:42:23.090Z,16.43
2018-05-13T03:44:54.205Z,16.30
2018-05-13T03:47:23.132Z,17.57
2018-05-13T03:50:03.269Z,16.37
2018-05-13T03:52:32.285Z,16.00
2018-05-13T03:55:00.309Z,18.23
2018-05-13T03:57:33.025Z,16.93
2018-05-13T04:00:04.801Z,16.40
2018-05-13T04:02:36.749Z,17.20
2018-05-13T04:05:04.784Z,16.60
2018-05-13T04:07:32.822Z,15.80
2018-05-13T04:10:13.585Z,16.77
2018-05-13T04:12:55.512Z,15.40
2018-05-13T04:18:22.169Z,16.30
2018-05-13T04:20:50.192Z,16.33
2018-05-13T04:23:24.872Z,17.27
2018-05-13T04:25:56.968Z,16.77
2018-05-13T04:28:25.041Z,15.40
2018-05-13T04:30:56.512Z,17.30
2018-05-13T04:33:30.812Z,17.37
2018-05-13T04:36:03.904Z,16.37
2018-05-13T04:38:31.952Z,15.87
2018-05-13T04:41:00.961Z,16.40
2018-05-13T04:43:34.168Z,16.90
2018-05-13T04:46:07.847Z,17.23
2018-05-13T04:48:40.576Z,16.93
2018-05-13T04:51:08.604Z,15.53
2018-05-13T04:53:38.628Z,17.20
2018-05-13T04:56:11.833Z,17.30
2018-05-13T04:58:50.269Z,15.93
2018-05-13T05:04:16.887Z,16.50
2018-05-13T05:06:51.260Z,15.27
2018-05-13T05:09:21.215Z,16.47
2018-05-13T05:11:50.240Z,17.43
2018-05-13T05:14:27.452Z,17.20
2018-05-13T05:16:56.531Z,15.50
2018-05-13T05:19:24.555Z,15.93
2018-05-13T05:21:57.271Z,16.27
2018-05-13T05:24:32.024Z,16.10
2018-05-13T05:27:02.951Z,16.23
2018-05-13T05:29:30.988Z,15.70
2018-05-13T05:31:59.003Z,15.33
2018-05-13T05:34:33.179Z,15.63
2018-05-13T05:37:06.235Z,14.70
2018-05-13T05:39:34.280Z,14.20
2018-05-13T05:42:02.356Z,15.30
2018-05-13T05:44:34.763Z,14.30
2018-05-13T05:47:02.800Z,14.80
2018-05-13T05:49:30.815Z,14.27
2018-05-13T05:52:10.471Z,13.60
2018-05-13T05:54:42.707Z,14.23
2018-05-13T05:57:11.647Z,14.20
2018-05-13T05:59:39.663Z,15.10
2018-05-13T06:02:09.679Z,13.60
2018-05-13T06:04:54.172Z,14.37
2018-05-13T06:07:22.183Z,13.10
2018-05-13T06:09:50.227Z,13.47
2018-05-13T06:12:18.314Z,13.37
2018-05-13T06:14:59.455Z,13.90
2018-05-13T06:17:29.235Z,13.53
2018-05-13T06:20:02.563Z,12.70
2018-05-13T06:22:33.263Z,14.47
2018-05-13T06:25:01.293Z,12.93
2018-05-13T06:27:36.643Z,13.70
2018-05-13T06:30:11.367Z,11.70
2018-05-13T06:32:40.295Z,12.57
2018-05-13T06:35:08.311Z,12.90
2018-05-13T06:37:48.396Z,12.40
2018-05-13T06:40:19.647Z,13.33
2018-05-13T06:42:47.659Z,14.20
2018-05-13T06:45:16.492Z,12.90
2018-05-13T06:47:51.819Z,12.33
2018-05-13T06:50:22.639Z,12.93
2018-05-13T06:52:58.612Z,11.30
2018-05-13T06:55:45.179Z,12.27
2018-05-13T06:58:13.971Z,11.03
2018-05-13T07:00:46.371Z,11.63
2018-05-13T07:03:22.751Z,12.00
2018-05-13T07:05:51.767Z,10.97
2018-05-13T07:08:23.623Z,11.23
2018-05-13T07:10:51.635Z,12.40
2018-05-13T07:13:22.331Z,11.03
2018-05-13T07:15:52.223Z,10.73
2018-05-13T07:18:21.247Z,11.77
2018-05-13T07:20:49.259Z,11.00
2018-05-13T07:23:17.279Z,11.10
2018-05-13T07:25:45.303Z,10.70
2018-05-13T07:28:13.311Z,10.83
2018-05-13T07:30:41.344Z,11.10
2018-05-13T07:33:09.359Z,11.90
2018-05-13T07:35:45.384Z,10.97
2018-05-13T07:38:18.304Z,11.00
2018-05-13T07:40:50.973Z,10.30
2018-05-13T07:43:21.008Z,10.50
2018-05-13T07:45:49.017Z,9.37
2018-05-13T07:48:25.332Z,9.53
2018-05-13T07:50:59.159Z,9.60
2018-05-13T07:53:27.099Z,9.90
2018-05-13T07:55:55.116Z,9.67
2018-05-13T07:58:25.072Z,9.00
2018-05-13T08:00:55.091Z,8.90
2018-05-13T08:03:23.996Z,8.80
2018-05-13T08:05:52.985Z,9.30
2018-05-13T08:08:21.003Z,8.30
2018-05-13T08:10:57.299Z,8.37
2018-05-13T08:13:28.659Z,8.77
2018-05-13T08:15:56.699Z,7.50
2018-05-13T08:18:25.467Z,8.10
2018-05-13T08:20:53.484Z,7.87
2018-05-13T08:23:21.487Z,8.10
2018-05-13T08:25:52.175Z,7.60
2018-05-13T08:28:21.175Z,7.27
2018-05-13T08:30:56.239Z,7.90
2018-05-13T08:33:24.258Z,8.20
2018-05-13T08:35:53.183Z,7.57
2018-05-13T08:38:26.883Z,7.33
2018-05-13T08:40:58.747Z,6.70
2018-05-13T08:43:26.766Z,6.53
2018-05-13T08:45:54.782Z,7.20
2018-05-13T08:48:23.063Z,6.43
2018-05-13T08:50:51.018Z,7.03
2018-05-13T08:53:23.495Z,7.10
2018-05-13T08:56:03.015Z,8.07
2018-05-13T08:58:38.755Z,7.30
2018-05-13T09:01:13.411Z,8.70
2018-05-13T09:03:45.347Z,6.63
2018-05-13T09:06:36.563Z,7.63
2018-05-13T09:09:11.009Z,7.60
2018-05-13T09:12:01.803Z,7.13
2018-05-13T09:14:31.725Z,6.97
2018-05-13T09:17:08.163Z,7.20
2018-05-13T09:19:39.207Z,7.70
2018-05-13T09:22:08.223Z,6.50
2018-05-13T09:24:36.223Z,8.20
2018-05-13T09:27:08.551Z,6.07
2018-05-13T09:35:28.775Z,7.07
2018-05-13T09:37:56.783Z,6.17
2018-05-13T09:40:32.986Z,6.50
2018-05-13T09:43:06.003Z,7.30
2018-05-13T09:45:44.415Z,6.57
2018-05-13T09:48:17.419Z,6.20
2018-05-13T09:50:51.198Z,7.03
2018-05-13T09:53:19.222Z,7.07
2018-05-13T09:55:54.387Z,6.40
2018-05-13T09:58:23.311Z,6.50
2018-05-13T10:00:59.011Z,7.30
2018-05-13T10:06:28.143Z,6.07
2018-05-13T10:09:08.910Z,5.93
2018-05-13T10:14:33.930Z,6.17
2018-05-13T10:17:13.287Z,6.23
2018-05-13T10:20:00.071Z,6.00
2018-05-13T10:25:31.402Z,6.53
2018-05-13T10:28:20.715Z,7.60
2018-05-13T10:30:55.970Z,7.07
2018-05-13T10:33:24.970Z,6.83
2018-05-13T10:36:00.298Z,6.93
2018-05-13T10:38:29.294Z,6.57
2018-05-13T10:41:13.718Z,6.27
2018-05-13T10:43:48.770Z,6.10
2018-05-13T10:49:20.106Z,6.60
2018-05-13T10:51:59.726Z,5.87
2018-05-13T10:54:34.122Z,6.30
2018-05-13T10:57:16.782Z,6.57
2018-05-13T11:02:38.039Z,6.60
2018-05-13T11:05:08.367Z,6.57
2018-05-13T11:10:38.094Z,6.43
2018-05-13T11:13:18.066Z,6.03
2018-05-13T11:21:51.858Z,5.40
2018-05-13T11:30:22.490Z,6.10
2018-05-13T11:33:13.762Z,6.13
2018-05-13T11:35:58.944Z,6.53
2018-05-13T11:38:49.938Z,5.77
2018-05-13T11:41:22.710Z,6.23
2018-05-13T11:43:56.254Z,5.37
2018-05-13T11:49:19.862Z,6.17
2018-05-13T11:52:06.830Z,5.63
2018-05-13T11:54:53.643Z,5.50
2018-05-13T11:57:27.139Z,5.70
2018-05-13T11:59:58.950Z,5.80
2018-05-13T12:02:35.258Z,6.40
2018-05-13T12:05:09.250Z,5.10
2018-05-13T12:07:50.633Z,5.23
2018-05-13T12:10:19.694Z,5.50
2018-05-13T12:13:00.866Z,6.03
2018-05-13T12:15:29.179Z,6.20
2018-05-13T12:18:11.686Z,6.17
2018-05-13T12:20:43.966Z,7.47
2018-05-13T12:23:14.086Z,5.70
2018-05-13T12:25:43.166Z,5.23
2018-05-13T12:28:24.301Z,6.73
2018-05-13T12:31:06.558Z,5.80
2018-05-13T12:33:46.834Z,5.20
2018-05-13T12:36:17.338Z,4.60
2018-05-13T12:42:04.550Z,4.90
2018-05-13T12:44:46.638Z,5.07
2018-05-13T12:47:19.070Z,5.80
2018-05-13T12:50:06.673Z,5.13
2018-05-13T12:55:28.329Z,4.50
2018-05-13T12:58:00.478Z,5.87
2018-05-13T13:00:29.416Z,5.30
2018-05-13T13:03:04.838Z,4.80
2018-05-13T13:05:43.498Z,6.07
2018-05-13T13:08:14.541Z,4.63
2018-05-13T13:10:49.725Z,5.30
2018-05-13T13:13:19.741Z,5.17
2018-05-13T13:16:02.565Z,5.00
2018-05-13T13:18:42.521Z,6.20
2018-05-13T13:21:23.033Z,5.87
2018-05-13T13:26:50.941Z,5.13
2018-05-13T13:38:07.881Z,5.57
2018-05-13T13:46:26.805Z,5.83
2018-05-13T13:52:07.701Z,6.70
2018-05-13T13:54:42.794Z,6.27
2018-05-13T14:11:51.436Z,6.47
2018-05-13T14:14:40.408Z,6.03
2018-05-13T14:20:35.658Z,6.17
2018-05-13T14:32:01.301Z,5.90
2018-05-13T14:34:30.090Z,6.63
2018-05-13T14:36:59.049Z,5.47
2018-05-13T14:39:30.593Z,4.80
2018-05-13T14:41:59.927Z,4.93
2018-05-13T14:44:35.821Z,4.93
2018-05-13T14:47:04.825Z,5.37
2018-05-13T14:49:34.857Z,5.97
2018-05-13T14:52:06.541Z,5.90
2018-05-13T14:54:35.469Z,5.47
2018-05-13T14:57:10.601Z,5.50
2018-05-13T14:59:39.689Z,5.80
2018-05-13T15:02:07.689Z,6.17
2018-05-13T15:04:55.143Z,6.10
2018-05-13T15:10:22.736Z,6.30
2018-05-13T15:12:58.133Z,6.40
2018-05-13T15:15:38.368Z,6.17
2018-05-13T15:18:06.416Z,6.13
2018-05-13T15:26:27.320Z,6.53
2018-05-13T15:32:06.207Z,7.10
2018-05-13T15:34:49.101Z,6.43
2018-05-13T15:40:17.259Z,7.23
2018-05-13T15:43:14.872Z,6.20
2018-05-13T15:48:42.865Z,6.13
2018-05-13T15:51:14.801Z,5.87
2018-05-13T15:53:49.917Z,5.47
2018-05-13T15:56:21.960Z,5.50
2018-05-13T15:58:49.980Z,5.47
2018-05-13T16:01:24.580Z,5.47
2018-05-13T16:03:53.565Z,5.30
2018-05-13T16:06:22.496Z,4.70
2018-05-13T16:09:06.573Z,4.40
2018-05-13T16:12:00.653Z,4.27
2018-05-13T16:14:32.435Z,4.10
2018-05-13T16:17:08.765Z,3.83
2018-05-13T16:19:38.825Z,2.83
2018-05-13T16:25:12.000Z,2.60
2018-05-13T16:28:01.053Z,2.20
2018-05-13T16:30:33.177Z,2.20
2018-05-13T16:33:03.157Z,1.70
2018-05-13T16:35:37.868Z,1.83
2018-05-13T16:38:08.949Z,2.60
2018-05-13T16:43:35.198Z,1.77
2018-05-13T16:46:16.059Z,1.80
2018-05-13T16:48:57.136Z,1.80
2018-05-13T16:54:22.884Z,1.70
2018-05-13T16:57:02.782Z,1.50
2018-05-13T16:59:58.264Z,2.10
2018-05-13T17:02:37.772Z,2.03
2018-05-13T17:05:09.473Z,2.07
2018-05-13T17:07:39.408Z,2.20
2018-05-13T17:10:15.896Z,2.90
2018-05-13T17:12:45.608Z,2.40
2018-05-13T17:15:34.316Z,2.57
2018-05-13T17:18:04.340Z,3.20
2018-05-13T17:20:51.816Z,2.80
2018-05-13T17:23:19.844Z,3.73
2018-05-13T17:25:48.783Z,3.90
2018-05-13T17:28:20.944Z,4.97
2018-05-13T17:31:01.257Z,4.17
2018-05-13T17:33:30.184Z,5.53
2018-05-13T17:36:23.329Z,5.30
2018-05-13T17:39:12.945Z,5.13
2018-05-13T17:41:40.952Z,5.87
2018-05-13T17:44:14.316Z,4.90
2018-05-13T17:46:45.080Z,5.23
2018-05-13T17:49:18.860Z,6.80
2018-05-13T17:51:48.649Z,6.80
2018-05-13T17:54:18.560Z,6.73
2018-05-13T17:56:52.126Z,6.60
2018-05-13T17:59:37.096Z,6.60
2018-05-13T18:02:13.304Z,6.77
2018-05-13T18:04:46.448Z,6.63
2018-05-13T18:07:17.258Z,6.23
2018-05-13T18:09:57.732Z,6.63
2018-05-13T18:12:31.752Z,7.30
2018-05-13T18:15:05.740Z,6.83
2018-05-13T18:17:35.732Z,6.70
2018-05-13T18:20:05.645Z,7.60
2018-05-13T18:22:39.756Z,7.40
2018-05-13T18:25:21.160Z,8.00
2018-05-13T18:27:51.112Z,6.50
2018-05-13T18:30:26.740Z,7.20
2018-05-13T18:32:56.464Z,7.37
2018-05-13T18:35:29.287Z,6.80
2018-05-13T18:38:01.364Z,7.50
2018-05-13T18:40:49.559Z,7.40
2018-05-13T18:43:20.636Z,7.07
2018-05-13T18:45:49.716Z,7.70
2018-05-13T18:48:18.651Z,6.67
2018-05-13T18:50:51.584Z,7.07
2018-05-13T18:53:25.287Z,7.37
2018-05-13T18:55:53.308Z,7.10
2018-05-13T18:58:21.320Z,6.57
2018-05-13T19:00:51.356Z,6.70
2018-05-13T19:03:19.360Z,7.03
2018-05-13T19:05:53.256Z,6.40
2018-05-13T19:08:22.044Z,6.93
2018-05-13T19:10:53.967Z,7.73
2018-05-13T19:13:30.157Z,7.00
2018-05-13T19:16:05.280Z,6.47
2018-05-13T19:18:34.135Z,6.80
2018-05-13T19:21:07.067Z,6.80
2018-05-13T19:23:35.097Z,7.00
2018-05-13T19:26:04.819Z,10.20
2018-05-13T19:28:37.287Z,10.27
2018-05-13T19:31:05.308Z,11.40
2018-05-13T19:33:34.220Z,10.90
2018-05-13T19:36:03.759Z,12.07
2018-05-13T19:38:32.016Z,11.50
2018-05-13T19:41:04.499Z,12.13
2018-05-13T19:43:34.527Z,12.97
2018-05-13T19:46:02.544Z,11.83
2018-05-13T19:48:33.843Z,12.70
2018-05-13T19:51:05.639Z,14.00
2018-05-13T19:53:34.424Z,13.53
2018-05-13T19:56:03.203Z,12.87
2018-05-13T19:58:31.400Z,14.37
2018-05-13T20:01:09.552Z,15.30
2018-05-13T20:03:37.751Z,16.90
2018-05-13T20:06:05.583Z,17.33
2018-05-13T20:08:39.906Z,15.47
2018-05-13T20:11:08.919Z,18.17
2018-05-13T20:13:40.783Z,17.53
2018-05-13T20:16:19.247Z,17.60
2018-05-13T20:18:48.298Z,16.60
2018-05-13T20:21:16.303Z,17.10
2018-05-13T20:23:44.347Z,17.80
2018-05-13T20:26:16.795Z,19.13
2018-05-13T20:28:45.776Z,18.17
2018-05-13T20:31:13.792Z,19.20
2018-05-13T20:33:43.123Z,19.40
2018-05-13T20:36:12.752Z,19.43
2018-05-13T20:38:44.516Z,19.83
2018-05-13T20:41:16.079Z,19.40
2018-05-13T20:43:44.139Z,19.50
2018-05-13T20:46:12.184Z,18.57
2018-05-13T20:48:41.087Z,17.93
2018-05-13T20:51:09.797Z,19.20
2018-05-13T20:53:43.043Z,20.20
2018-05-13T20:56:12.068Z,19.90
2018-05-13T20:58:42.452Z,19.57
2018-05-13T21:01:15.185Z,18.37
2018-05-13T21:03:43.312Z,19.67
2018-05-13T21:06:12.240Z,19.93
2018-05-13T21:08:40.260Z,19.90
2018-05-13T21:11:14.704Z,19.30
2018-05-13T21:13:47.016Z,20.20
2018-05-13T21:16:15.052Z,20.63
2018-05-13T21:18:44.063Z,20.20
2018-05-13T21:21:12.087Z,20.87
2018-05-13T21:23:54.179Z,21.93
2018-05-13T21:26:24.143Z,20.87
2018-05-13T21:28:53.150Z,20.10
2018-05-13T21:31:27.599Z,21.20
2018-05-13T21:34:02.103Z,21.20
2018-05-13T21:36:30.151Z,21.53
2018-05-13T21:38:58.427Z,23.93
2018-05-13T21:41:28.151Z,24.70
2018-05-13T21:43:56.219Z,22.07
2018-05-13T21:46:29.059Z,22.63
2018-05-13T21:48:59.003Z,20.90
2018-05-13T21:51:30.743Z,21.97
2018-05-13T21:53:59.751Z,19.93
2018-05-13T21:56:28.437Z,19.00
2018-05-13T21:59:00.211Z,19.90
2018-05-13T22:01:28.271Z,20.33
2018-05-13T22:03:56.310Z,20.03
2018-05-13T22:06:27.819Z,20.87
2018-05-13T22:08:58.518Z,19.80
2018-05-13T22:11:26.557Z,20.63
2018-05-13T22:14:01.292Z,20.90
2018-05-13T22:16:29.343Z,20.00
2018-05-13T22:19:04.835Z,19.57
2018-05-13T22:21:34.870Z,20.27
2018-05-13T22:24:02.911Z,20.03
2018-05-13T22:26:32.954Z,20.33
2018-05-13T22:29:02.974Z,19.20
2018-05-13T22:31:31.006Z,19.73
2018-05-13T22:33:59.330Z,20.47
2018-05-13T22:36:33.134Z,19.13
2018-05-13T22:39:06.990Z,19.23
2018-05-13T22:41:46.011Z,18.53
2018-05-13T22:44:15.966Z,18.60
2018-05-13T22:46:49.752Z,18.67
2018-05-13T22:49:19.678Z,19.07
2018-05-13T22:52:09.503Z,19.50
2018-05-13T22:54:41.349Z,19.10
2018-05-13T22:57:10.329Z,17.77
2018-05-13T22:59:38.356Z,18.80
2018-05-13T23:02:06.390Z,18.33
2018-05-13T23:04:40.809Z,16.97
2018-05-13T23:07:11.513Z,17.90
2018-05-13T23:09:43.777Z,16.53
2018-05-13T23:12:18.464Z,17.90
2018-05-13T23:14:48.419Z,16.97
2018-05-13T23:17:17.411Z,17.63
2018-05-13T23:19:47.423Z,18.97
2018-05-13T23:22:29.235Z,15.93
2018-05-13T23:25:00.468Z,16.73
2018-05-13T23:27:28.515Z,16.87
2018-05-13T23:29:57.263Z,16.80
2018-05-13T23:32:26.222Z,16.77
2018-05-13T23:35:19.656Z,16.87
2018-05-13T23:37:48.659Z,17.20
2018-05-13T23:40:16.709Z,17.33
2018-05-13T23:42:45.756Z,16.07
2018-05-13T23:45:14.555Z,16.53
2018-05-13T23:47:48.291Z,16.17
2018-05-13T23:50:16.306Z,16.90
2018-05-13T23:52:49.927Z,15.77
2018-05-13T23:55:19.706Z,18.20
2018-05-13T23:57:48.695Z,16.80
